Latest Weather Observations for Mount Nowa Nowa

IDV60801

Issued at 11:02 pm EST Tuesday 7 July 2015 (issued every 30 minutes, with the page automatically refreshed every 10 minutes)

About weather observations | Map of weather stations | Latest weather observations for VIC | Other Formats
Station Details ID: 084144 Name: MOUNT NOWA NOWA Lat: -37.69 Lon: 148.09 Height: 350.0 m
Data from the previous 72 hours. | See also: Recent months at Mount Nowa Nowa
Date/Time
EST
Temp
°C
App
Temp
°C
Dew
Point
Rel
Hum
%
Delta-T
°C
Wind Press
QNH
hPa
Press
MSL
hPa
Rain
since 9 am
mm
Dir
 
Spd
km/h
Gust
km/h
Spd
kts
Gust
kts
07/11:00pm 7.2 5.7 6.8 97 0.2 N 4 7 2 4 - - 0.8
07/10:30pm 7.0 4.9 6.6 97 0.2 N 7 9 4 5 - - 0.8
07/10:00pm 7.1 5.6 6.7 97 0.2 NNW 4 7 2 4 - - 0.8
07/09:30pm 7.2 6.4 6.6 96 0.3 CALM 0 0 0 0 - - 0.8
07/09:00pm 7.2 6.5 6.8 97 0.2 CALM 0 0 0 0 - - 0.8
07/08:30pm 7.0 6.2 6.6 97 0.2 CALM 0 0 0 0 - - 0.8
07/08:00pm 6.9 6.1 6.5 97 0.2 CALM 0 0 0 0 - - 0.8
07/07:30pm 7.0 6.2 6.6 97 0.2 CALM 0 0 0 0 - - 0.8
07/07:00pm 7.0 6.2 6.6 97 0.2 CALM 0 2 0 1 - - 0.8
07/06:30pm 7.4 6.7 6.8 96 0.3 CALM 0 4 0 2 - - 0.8
07/06:00pm 7.8 7.1 7.1 95 0.3 CALM 0 0 0 0 - - 0.8
07/05:30pm 7.8 7.1 7.1 95 0.3 CALM 0 0 0 0 - - 0.8
07/05:00pm 8.0 7.4 7.2 95 0.4 CALM 0 0 0 0 - - 0.8
07/04:30pm 8.1 7.5 7.2 94 0.4 CALM 0 0 0 0 - - 0.8
07/04:00pm 8.3 7.3 7.2 93 0.5 SSE 2 4 1 2 - - 0.8
07/03:30pm 8.7 7.3 7.3 91 0.7 S 4 7 2 4 - - 0.8
07/03:00pm 8.5 7.5 7.4 93 0.5 S 2 4 1 2 - - 0.8
07/02:30pm 8.5 7.6 7.6 94 0.4 ESE 2 6 1 3 - - 0.8
07/02:00pm 8.7 8.2 7.8 94 0.4 CALM 0 2 0 1 - - 0.8
07/01:30pm 8.4 7.6 8.0 97 0.2 E 2 6 1 3 - - 0.6
07/01:00pm 8.0 7.4 7.6 97 0.2 CALM 0 4 0 2 - - 0.6
07/12:30pm 8.1 6.4 7.7 97 0.2 SSE 6 13 3 7 - - 0.4
07/12:00pm 8.3 7.1 8.2 99 0.0 SSE 4 9 2 5 - - 0.2
07/11:30am 7.9 6.6 7.8 99 0.0 SSE 4 7 2 4 - - 0.2
07/11:00am 8.0 7.5 7.9 99 0.0 CALM 0 4 0 2 - - 0.2
07/10:30am 7.9 7.0 7.8 99 0.0 WSW 2 4 1 2 - - 0.2
07/10:00am 7.5 6.5 7.4 99 0.0 WSW 2 4 1 2 - - 0.2
07/09:30am 7.1 6.0 7.0 99 0.0 WSW 2 4 1 2 - - 0.0
07/09:00am 6.8 5.3 6.7 99 0.0 W 4 9 2 5 - - 14.4
07/08:30am 6.7 5.2 6.6 99 0.0 W 4 7 2 4 - - 14.4
07/08:00am 6.6 4.7 6.5 99 0.0 W 6 11 3 6 - - 14.0
07/07:30am 6.6 4.7 6.5 99 0.0 W 6 13 3 7 - - 13.8
07/07:00am 6.7 5.2 6.6 99 0.0 WSW 4 9 2 5 - - 13.4
07/06:30am 6.7 4.8 6.6 99 0.0 WSW 6 11 3 6 - - 13.2
07/06:00am 6.6 4.7 6.5 99 0.0 W 6 9 3 5 - - 12.6
07/05:30am 6.6 4.7 6.5 99 0.0 WSW 6 15 3 8 - - 11.6
07/05:00am 6.7 4.8 6.6 99 0.0 W 6 11 3 6 - - 11.4
07/04:30am 6.7 4.8 6.6 99 0.0 W 6 11 3 6 - - 11.0
07/04:00am 6.7 4.6 6.6 99 0.0 W 7 13 4 7 - - 10.6
07/03:30am 6.8 4.7 6.7 99 0.0 W 7 13 4 7 - - 9.8
07/03:00am 6.8 4.7 6.7 99 0.0 W 7 13 4 7 - - 9.2
07/02:30am 6.6 4.7 6.5 99 0.0 W 6 11 3 6 - - 9.0
07/02:00am 6.5 4.5 6.2 98 0.1 W 6 9 3 5 - - 8.4
07/01:30am 6.8 4.9 6.5 98 0.1 W 6 7 3 4 - - 8.4
07/01:00am 6.6 5.0 6.3 98 0.1 W 4 6 2 3 - - 8.4
07/12:30am 6.7 4.7 6.4 98 0.1 W 6 7 3 4 - - 8.2
07/12:00am 6.6 4.6 6.3 98 0.1 W 6 7 3 4 - - 8.2
 
Date/Time
EST
Temp
°C
App
Temp
°C
Dew
Point
Rel
Hum
%
Delta-T
°C
Wind Press
QNH
hPa
Press
MSL
hPa
Rain
since 9 am
mm
Dir
 
Spd
km/h
Gust
km/h
Spd
kts
Gust
kts
06/11:30pm 6.7 4.7 6.4 98 0.1 W 6 7 3 4 - - 8.2
06/11:00pm 6.7 4.7 6.3 97 0.2 W 6 11 3 6 - - 8.2
06/10:30pm 6.8 4.6 6.4 97 0.2 W 7 17 4 9 - - 8.0
06/10:00pm 6.6 4.4 6.2 97 0.2 W 7 13 4 7 - - 7.8
06/09:30pm 6.7 4.6 6.0 95 0.3 W 6 9 3 5 - - 7.6
06/09:00pm 6.9 4.8 5.7 92 0.5 WNW 6 9 3 5 - - 7.4
06/08:30pm 7.2 5.4 5.5 89 0.8 WNW 4 7 2 4 - - 7.2
06/08:00pm 7.2 4.8 5.3 88 0.9 NW 7 13 4 7 - - 7.2
06/07:30pm 7.2 4.5 5.5 89 0.8 NW 9 13 5 7 - - 7.2
06/07:00pm 7.0 3.9 5.6 91 0.6 NNW 11 17 6 9 - - 7.2
06/06:30pm 7.2 4.7 6.5 95 0.3 NNW 9 15 5 8 - - 6.6
06/06:00pm 7.0 5.1 6.6 97 0.2 W 6 9 3 5 - - 4.8
06/05:30pm 6.9 4.7 6.3 96 0.3 WNW 7 11 4 6 - - 3.6
06/05:00pm 7.0 4.4 5.9 93 0.5 WNW 9 15 5 8 - - 2.8
06/04:30pm 8.0 5.8 5.3 83 1.2 WNW 6 9 3 5 - - 0.8
06/04:00pm 8.3 5.9 5.4 82 1.3 WNW 7 13 4 7 - - 0.8
06/03:30pm 8.1 5.4 5.6 84 1.1 NW 9 13 5 7 - - 0.8
06/03:00pm 8.3 5.2 5.6 83 1.2 NNW 11 19 6 10 - - 0.8
06/02:30pm 8.1 5.4 5.6 84 1.1 NW 9 19 5 10 - - 0.8
06/02:00pm 7.8 5.5 5.8 87 0.9 NW 7 11 4 6 - - 0.6
06/01:30pm 8.0 6.0 6.1 88 0.9 WNW 6 7 3 4 - - 0.4
06/01:00pm 8.8 6.4 5.4 79 1.6 WNW 7 13 4 7 - - 0.0
06/12:30pm 8.8 6.0 5.0 77 1.7 WNW 9 15 5 8 - - 0.0
06/12:00pm 9.1 6.3 5.1 76 1.8 NW 9 17 5 9 - - 0.0
06/11:30am 8.2 4.9 4.4 77 1.7 NW 11 19 6 10 - - 0.0
06/11:00am 7.9 4.1 3.9 76 1.8 NW 13 19 7 10 - - 0.0
06/10:30am 7.7 3.5 3.6 75 1.8 NW 15 24 8 13 - - 0.0
06/10:00am 7.4 2.7 3.3 75 1.8 NNW 17 26 9 14 - - 0.0
06/09:30am 7.0 2.3 2.9 75 1.8 NNW 17 28 9 15 - - 0.0
06/09:00am 6.8 2.0 2.7 75 1.7 NNW 17 28 9 15 - - 0.0
06/08:30am 6.8 1.6 2.5 74 1.8 NNW 19 28 10 15 - - 0.0
06/08:00am 6.7 1.5 2.4 74 1.8 NNW 19 28 10 15 - - 0.0
06/07:30am 6.4 1.2 2.5 76 1.6 NNW 19 28 10 15 - - 0.0
06/07:00am 6.4 1.2 2.3 75 1.7 NNW 19 32 10 17 - - 0.0
06/06:30am 6.3 1.4 2.2 75 1.7 NNW 17 28 9 15 - - 0.0
06/06:00am 6.3 1.1 2.2 75 1.7 NNW 19 28 10 15 - - 0.0
06/05:30am 6.2 1.3 2.3 76 1.6 NNW 17 28 9 15 - - 0.0
06/05:00am 6.3 1.1 2.2 75 1.7 NNW 19 26 10 14 - - 0.0
06/04:30am 6.6 1.7 2.3 74 1.8 NNW 17 24 9 13 - - 0.0
06/04:00am 6.5 1.7 2.4 75 1.7 NNW 17 26 9 14 - - 0.0
06/03:30am 6.7 1.9 2.4 74 1.8 NNW 17 24 9 13 - - 0.0
06/03:00am 6.7 2.3 2.6 75 1.7 NNW 15 24 8 13 - - 0.0
06/02:30am 6.7 2.3 2.6 75 1.7 NNW 15 26 8 14 - - 0.0
06/02:00am 7.0 3.0 2.7 74 1.8 NW 13 20 7 11 - - 0.0
06/01:30am 7.0 2.6 2.7 74 1.8 NW 15 20 8 11 - - 0.0
06/01:00am 7.0 3.0 2.7 74 1.8 NNW 13 20 7 11 - - 0.0
06/12:30am 7.2 2.8 2.7 73 1.9 NNW 15 22 8 12 - - 0.0
06/12:00am 7.3 2.9 2.8 73 1.9 NNW 15 20 8 11 - - 0.0
 
Date/Time
EST
Temp
°C
App
Temp
°C
Dew
Point
Rel
Hum
%
Delta-T
°C
Wind Press
QNH
hPa
Press
MSL
hPa
Rain
since 9 am
mm
Dir
 
Spd
km/h
Gust
km/h
Spd
kts
Gust
kts
05/11:30pm 7.6 3.2 2.9 72 2.0 NNW 15 24 8 13 - - 0.0
05/11:00pm 7.7 3.4 3.0 72 2.0 NW 15 22 8 12 - - 0.0
05/10:30pm 8.1 4.1 3.0 70 2.2 NW 13 20 7 11 - - 0.0
05/10:00pm 8.1 4.2 3.2 71 2.1 NW 13 22 7 12 - - 0.0
05/09:30pm 8.1 3.8 3.2 71 2.1 NNW 15 20 8 11 - - 0.0
05/09:00pm 8.1 4.2 3.6 73 2.0 NW 13 20 7 11 - - 0.0
05/08:30pm 8.3 4.9 3.8 73 2.0 NW 11 17 6 9 - - 0.0
05/08:00pm 8.7 5.4 4.3 74 2.0 NW 11 20 6 11 - - 0.0
05/07:30pm 9.4 6.1 4.8 73 2.1 NW 11 19 6 10 - - 0.0
05/07:00pm 9.4 7.1 5.8 78 1.7 NW 7 11 4 6 - - 0.0
05/06:30pm 9.9 7.8 5.9 76 1.9 WNW 6 9 3 5 - - 0.0
05/06:00pm 10.4 8.4 6.4 76 1.9 W 6 9 3 5 - - 0.0
05/05:30pm 10.9 8.9 6.3 73 2.2 W 6 7 3 4 - - 0.0
05/05:00pm 11.3 9.3 6.2 71 2.4 W 6 9 3 5 - - 0.0
05/04:30pm 12.0 10.1 6.7 70 2.6 W 6 9 3 5 - - 0.0
05/04:00pm 12.8 10.9 6.8 67 2.9 WNW 6 7 3 4 - - 0.0
05/03:30pm 13.8 12.4 7.1 64 3.3 WNW 4 7 2 4 - - 0.0
05/03:00pm 13.9 12.4 6.7 62 3.5 WNW 4 6 2 3 - - 0.0
05/02:30pm 13.9 12.0 6.7 62 3.5 WNW 6 9 3 5 - - 0.0
05/02:00pm 13.2 11.2 6.3 63 3.4 WNW 6 9 3 5 - - 0.0
05/01:30pm 13.0 11.1 6.8 66 3.0 WNW 6 9 3 5 - - 0.0
05/01:00pm 12.8 11.3 6.8 67 2.9 WNW 4 6 2 3 - - 0.0
05/12:30pm 12.1 10.2 6.8 70 2.6 NW 6 11 3 6 - - 0.0
05/12:00pm 12.0 9.9 6.5 69 2.7 NW 7 13 4 7 - - 0.0
05/11:30am 11.7 9.1 6.0 68 2.7 NNW 9 17 5 9 - - 0.0
05/11:00am 11.6 8.9 5.7 67 2.8 NW 9 15 5 8 - - 0.0
05/10:30am 10.5 7.3 4.9 68 2.6 NNW 11 20 6 11 - - 0.0
05/10:00am 9.6 5.9 4.4 70 2.4 NNW 13 20 7 11 - - 0.0
05/09:30am 8.4 4.2 3.7 72 2.1 NNW 15 24 8 13 - - 0.0
05/09:00am 8.0 3.7 3.5 73 2.0 NNW 15 20 8 11 - - 0.0
05/08:30am 8.0 3.7 3.3 72 2.0 NNW 15 24 8 13 - - 0.0
05/08:00am 7.7 3.4 3.4 74 1.9 NNW 15 20 8 11 - - 0.0
05/07:30am 7.9 3.6 3.4 73 2.0 NW 15 24 8 13 - - 0.0
05/07:00am 7.9 4.0 3.4 73 2.0 NW 13 20 7 11 - - 0.0
05/06:30am 8.0 4.1 3.5 73 2.0 NW 13 19 7 10 - - 0.0
05/06:00am 8.1 4.2 3.4 72 2.1 NW 13 19 7 10 - - 0.0
05/05:30am 8.0 4.2 3.7 74 1.9 NW 13 20 7 11 - - 0.0
05/05:00am 8.1 4.2 3.6 73 2.0 NW 13 24 7 13 - - 0.0
05/04:30am 8.3 4.8 3.6 72 2.1 NW 11 17 6 9 - - 0.0
05/04:00am 8.4 5.3 3.7 72 2.1 NW 9 15 5 8 - - 0.0
05/03:30am 8.4 4.9 3.7 72 2.1 NW 11 17 6 9 - - 0.0
05/03:00am 8.4 4.6 3.7 72 2.1 NW 13 19 7 10 - - 0.0
05/02:30am 8.6 5.1 3.6 71 2.2 NW 11 17 6 9 - - 0.0
05/02:00am 8.5 4.6 3.6 71 2.2 NW 13 22 7 12 - - 0.0
05/01:30am 8.7 5.2 3.5 70 2.3 NW 11 19 6 10 - - 0.0
05/01:00am 8.6 4.7 3.6 71 2.2 NW 13 19 7 10 - - 0.0
05/12:30am 8.5 4.6 3.6 71 2.2 NNW 13 20 7 11 - - 0.0
05/12:00am 8.4 4.2 3.7 72 2.1 NNW 15 22 8 12 - - 0.0
 
Date/Time
EST
Temp
°C
App
Temp
°C
Dew
Point
Rel
Hum
%
Delta-T
°C
Wind Press
QNH
hPa
Press
MSL
hPa
Rain
since 9 am
mm
Dir
 
Spd
km/h
Gust
km/h
Spd
kts
Gust
kts
04/11:30pm 8.6 5.2 4.0 73 2.0 NW 11 20 6 11 - - 0.0

Other Formats:

Comma delimited format used in spreadsheet applications
http://www.bom.gov.au/fwo/IDV60801/IDV60801.94930.axf

JavaScript Object Notation format (JSON) in row-major order
http://www.bom.gov.au/fwo/IDV60801/IDV60801.94930.json